sensor_id;sensor_type;location;lat;lon;timestamp;temperature;humidity
42421;DHT22;28063;48.140;11.588;2023-02-28T00:02:08;-2.40;94.50
42421;DHT22;28063;48.140;11.588;2023-02-28T00:04:33;-2.30;94.70
42421;DHT22;28063;48.140;11.588;2023-02-28T00:06:59;-2.40;94.60
42421;DHT22;28063;48.140;11.588;2023-02-28T00:09:25;-2.40;94.60
42421;DHT22;28063;48.140;11.588;2023-02-28T00:11:50;-2.40;94.70
42421;DHT22;28063;48.140;11.588;2023-02-28T00:14:16;-2.40;94.70
42421;DHT22;28063;48.140;11.588;2023-02-28T00:16:42;-2.40;94.80
42421;DHT22;28063;48.140;11.588;2023-02-28T00:19:07;-2.40;94.90
42421;DHT22;28063;48.140;11.588;2023-02-28T00:21:33;-2.40;95.00
42421;DHT22;28063;48.140;11.588;2023-02-28T00:23:59;-2.40;95.00
42421;DHT22;28063;48.140;11.588;2023-02-28T00:26:24;-2.50;95.00
42421;DHT22;28063;48.140;11.588;2023-02-28T00:28:51;-2.50;94.90
42421;DHT22;28063;48.140;11.588;2023-02-28T00:31:18;-2.50;95.10
42421;DHT22;28063;48.140;11.588;2023-02-28T00:33:43;-2.50;95.10
42421;DHT22;28063;48.140;11.588;2023-02-28T00:36:11;-2.50;95.20
42421;DHT22;28063;48.140;11.588;2023-02-28T00:38:38;-2.50;95.30
42421;DHT22;28063;48.140;11.588;2023-02-28T00:41:04;-2.50;95.30
42421;DHT22;28063;48.140;11.588;2023-02-28T00:43:31;-2.60;95.30
42421;DHT22;28063;48.140;11.588;2023-02-28T00:45:57;-2.60;95.40
42421;DHT22;28063;48.140;11.588;2023-02-28T00:48:22;-2.60;95.40
42421;DHT22;28063;48.140;11.588;2023-02-28T00:50:49;-2.60;95.50
42421;DHT22;28063;48.140;11.588;2023-02-28T00:53:15;-2.60;95.60
42421;DHT22;28063;48.140;11.588;2023-02-28T00:55:40;-2.60;95.70
42421;DHT22;28063;48.140;11.588;2023-02-28T00:58:06;-2.60;95.60
42421;DHT22;28063;48.140;11.588;2023-02-28T01:00:32;-2.60;95.70
42421;DHT22;28063;48.140;11.588;2023-02-28T01:02:57;-2.60;95.80
42421;DHT22;28063;48.140;11.588;2023-02-28T01:05:23;-2.60;95.80
42421;DHT22;28063;48.140;11.588;2023-02-28T01:07:49;-2.60;95.70
42421;DHT22;28063;48.140;11.588;2023-02-28T01:10:15;-2.70;95.70
42421;DHT22;28063;48.140;11.588;2023-02-28T01:12:40;-2.70;95.90
42421;DHT22;28063;48.140;11.588;2023-02-28T01:15:06;-2.70;95.90
42421;DHT22;28063;48.140;11.588;2023-02-28T01:17:32;-2.70;95.90
42421;DHT22;28063;48.140;11.588;2023-02-28T01:19:58;-2.70;95.90
42421;DHT22;28063;48.140;11.588;2023-02-28T01:22:23;-2.70;95.90
42421;DHT22;28063;48.140;11.588;2023-02-28T01:24:49;-2.80;96.00
42421;DHT22;28063;48.140;11.588;2023-02-28T01:27:15;-2.80;96.10
42421;DHT22;28063;48.140;11.588;2023-02-28T01:29:40;-2.80;96.10
42421;DHT22;28063;48.140;11.588;2023-02-28T01:32:06;-2.80;96.20
42421;DHT22;28063;48.140;11.588;2023-02-28T01:34:31;-2.80;96.30
42421;DHT22;28063;48.140;11.588;2023-02-28T01:36:57;-2.80;96.40
42421;DHT22;28063;48.140;11.588;2023-02-28T01:39:24;-2.80;96.50
42421;DHT22;28063;48.140;11.588;2023-02-28T01:41:50;-2.80;96.50
42421;DHT22;28063;48.140;11.588;2023-02-28T01:47:19;-2.90;96.60
42421;DHT22;28063;48.140;11.588;2023-02-28T01:49:44;-2.90;96.50
42421;DHT22;28063;48.140;11.588;2023-02-28T01:52:11;-2.90;96.60
42421;DHT22;28063;48.140;11.588;2023-02-28T01:54:46;-2.90;96.60
42421;DHT22;28063;48.140;11.588;2023-02-28T01:57:17;-2.90;96.60
42421;DHT22;28063;48.140;11.588;2023-02-28T01:59:50;-2.90;96.70
42421;DHT22;28063;48.140;11.588;2023-02-28T02:02:19;-2.90;96.80
42421;DHT22;28063;48.140;11.588;2023-02-28T02:05:07;-2.90;96.80
42421;DHT22;28063;48.140;11.588;2023-02-28T02:07:36;-2.90;96.80
42421;DHT22;28063;48.140;11.588;2023-02-28T02:35:16;-3.10;97.40
42421;DHT22;28063;48.140;11.588;2023-02-28T02:43:32;-3.20;97.60
42421;DHT22;28063;48.140;11.588;2023-02-28T02:46:10;-3.20;97.70
42421;DHT22;28063;48.140;11.588;2023-02-28T02:48:40;-3.20;97.80
42421;DHT22;28063;48.140;11.588;2023-02-28T02:51:11;-3.20;97.90
42421;DHT22;28063;48.140;11.588;2023-02-28T02:53:44;-3.20;97.90
42421;DHT22;28063;48.140;11.588;2023-02-28T02:56:12;-3.30;98.00
42421;DHT22;28063;48.140;11.588;2023-02-28T02:58:42;-3.30;98.20
42421;DHT22;28063;48.140;11.588;2023-02-28T03:01:12;-3.30;98.30
42421;DHT22;28063;48.140;11.588;2023-02-28T03:03:39;-3.30;98.30
42421;DHT22;28063;48.140;11.588;2023-02-28T03:06:04;-3.30;98.30
42421;DHT22;28063;48.140;11.588;2023-02-28T03:08:35;-3.20;98.40
42421;DHT22;28063;48.140;11.588;2023-02-28T03:11:03;-3.20;98.40
42421;DHT22;28063;48.140;11.588;2023-02-28T03:13:42;-3.20;98.50
42421;DHT22;28063;48.140;11.588;2023-02-28T03:21:47;-3.30;98.60
42421;DHT22;28063;48.140;11.588;2023-02-28T03:26:42;-3.30;98.90
42421;DHT22;28063;48.140;11.588;2023-02-28T03:31:59;-3.30;99.10
42421;DHT22;28063;48.140;11.588;2023-02-28T03:34:38;-3.30;99.10
42421;DHT22;28063;48.140;11.588;2023-02-28T03:37:15;-3.30;99.20
42421;DHT22;28063;48.140;11.588;2023-02-28T03:39:47;-3.30;99.30
42421;DHT22;28063;48.140;11.588;2023-02-28T03:42:17;-3.30;99.40
42421;DHT22;28063;48.140;11.588;2023-02-28T03:44:51;-3.30;99.50
42421;DHT22;28063;48.140;11.588;2023-02-28T03:47:33;-3.30;99.60
42421;DHT22;28063;48.140;11.588;2023-02-28T03:50:11;-3.30;99.70
42421;DHT22;28063;48.140;11.588;2023-02-28T03:52:47;-3.30;99.70
42421;DHT22;28063;48.140;11.588;2023-02-28T03:55:15;-3.30;99.80
42421;DHT22;28063;48.140;11.588;2023-02-28T03:57:58;-3.20;99.90
42421;DHT22;28063;48.140;11.588;2023-02-28T04:00:43;-3.30;99.90
42421;DHT22;28063;48.140;11.588;2023-02-28T04:03:10;-3.30;99.90
42421;DHT22;28063;48.140;11.588;2023-02-28T04:05:51;-3.20;99.90
42421;DHT22;28063;48.140;11.588;2023-02-28T04:08:17;-3.30;99.90
42421;DHT22;28063;48.140;11.588;2023-02-28T04:10:45;-3.30;99.90
42421;DHT22;28063;48.140;11.588;2023-02-28T04:13:12;-3.30;99.90
42421;DHT22;28063;48.140;11.588;2023-02-28T04:15:37;-3.30;99.90
42421;DHT22;28063;48.140;11.588;2023-02-28T04:18:03;-3.30;99.90
42421;DHT22;28063;48.140;11.588;2023-02-28T04:20:29;-3.30;99.90
42421;DHT22;28063;48.140;11.588;2023-02-28T04:22:54;-3.20;99.90
42421;DHT22;28063;48.140;11.588;2023-02-28T04:25:20;-3.20;99.90
42421;DHT22;28063;48.140;11.588;2023-02-28T04:27:45;-3.20;99.90
42421;DHT22;28063;48.140;11.588;2023-02-28T04:30:11;-3.20;99.90
42421;DHT22;28063;48.140;11.588;2023-02-28T04:32:37;-3.10;99.90
42421;DHT22;28063;48.140;11.588;2023-02-28T04:35:03;-3.10;99.90
42421;DHT22;28063;48.140;11.588;2023-02-28T04:37:29;-3.00;99.90
42421;DHT22;28063;48.140;11.588;2023-02-28T04:40:03;-2.90;99.90
42421;DHT22;28063;48.140;11.588;2023-02-28T04:42:32;-2.80;99.90
42421;DHT22;28063;48.140;11.588;2023-02-28T04:45:02;-2.70;99.90
42421;DHT22;28063;48.140;11.588;2023-02-28T04:47:28;-2.70;99.90
42421;DHT22;28063;48.140;11.588;2023-02-28T04:49:53;-2.60;99.90
42421;DHT22;28063;48.140;11.588;2023-02-28T04:52:19;-2.60;99.90
42421;DHT22;28063;48.140;11.588;2023-02-28T04:54:45;-2.50;99.90
42421;DHT22;28063;48.140;11.588;2023-02-28T04:57:11;-2.50;99.90
42421;DHT22;28063;48.140;11.588;2023-02-28T04:59:36;-2.50;99.90
42421;DHT22;28063;48.140;11.588;2023-02-28T05:02:02;-2.50;99.90
42421;DHT22;28063;48.140;11.588;2023-02-28T05:04:33;-2.40;99.90
42421;DHT22;28063;48.140;11.588;2023-02-28T05:07:01;-2.40;99.90
42421;DHT22;28063;48.140;11.588;2023-02-28T05:09:27;-2.40;99.90
42421;DHT22;28063;48.140;11.588;2023-02-28T05:11:54;-2.30;99.90
42421;DHT22;28063;48.140;11.588;2023-02-28T05:14:19;-2.30;99.90
42421;DHT22;28063;48.140;11.588;2023-02-28T05:16:45;-2.30;99.90
42421;DHT22;28063;48.140;11.588;2023-02-28T05:19:11;-2.30;99.90
42421;DHT22;28063;48.140;11.588;2023-02-28T05:21:41;-2.30;99.90
42421;DHT22;28063;48.140;11.588;2023-02-28T05:24:13;-2.20;99.90
42421;DHT22;28063;48.140;11.588;2023-02-28T05:26:40;-2.20;99.80
42421;DHT22;28063;48.140;11.588;2023-02-28T05:29:07;-2.20;99.90
42421;DHT22;28063;48.140;11.588;2023-02-28T05:31:33;-2.20;99.90
42421;DHT22;28063;48.140;11.588;2023-02-28T05:33:59;-2.10;99.90
42421;DHT22;28063;48.140;11.588;2023-02-28T05:36:25;-2.10;99.60
42421;DHT22;28063;48.140;11.588;2023-02-28T05:38:51;-2.10;99.50
42421;DHT22;28063;48.140;11.588;2023-02-28T05:41:18;-2.10;99.50
42421;DHT22;28063;48.140;11.588;2023-02-28T05:43:45;-2.10;99.70
42421;DHT22;28063;48.140;11.588;2023-02-28T05:46:11;-2.10;99.60
42421;DHT22;28063;48.140;11.588;2023-02-28T05:48:39;-2.10;99.50
42421;DHT22;28063;48.140;11.588;2023-02-28T05:51:06;-2.10;99.50
42421;DHT22;28063;48.140;11.588;2023-02-28T05:53:33;-2.10;99.60
42421;DHT22;28063;48.140;11.588;2023-02-28T05:55:59;-2.10;99.70
42421;DHT22;28063;48.140;11.588;2023-02-28T05:58:25;-2.00;99.60
42421;DHT22;28063;48.140;11.588;2023-02-28T06:00:54;-2.00;99.50
42421;DHT22;28063;48.140;11.588;2023-02-28T06:03:20;-1.90;99.60
42421;DHT22;28063;48.140;11.588;2023-02-28T06:05:46;-1.90;99.50
42421;DHT22;28063;48.140;11.588;2023-02-28T06:08:11;-1.90;99.20
42421;DHT22;28063;48.140;11.588;2023-02-28T06:10:37;-1.90;98.70
42421;DHT22;28063;48.140;11.588;2023-02-28T06:13:04;-1.90;98.90
42421;DHT22;28063;48.140;11.588;2023-02-28T06:15:30;-1.80;98.50
42421;DHT22;28063;48.140;11.588;2023-02-28T06:17:57;-1.90;98.40
42421;DHT22;28063;48.140;11.588;2023-02-28T06:20:23;-1.80;98.60
42421;DHT22;28063;48.140;11.588;2023-02-28T06:22:49;-1.80;98.60
42421;DHT22;28063;48.140;11.588;2023-02-28T06:25:19;-1.80;98.60
42421;DHT22;28063;48.140;11.588;2023-02-28T06:27:45;-1.80;98.10
42421;DHT22;28063;48.140;11.588;2023-02-28T06:30:11;-1.80;98.00
42421;DHT22;28063;48.140;11.588;2023-02-28T06:32:37;-1.80;98.10
42421;DHT22;28063;48.140;11.588;2023-02-28T06:35:03;-1.70;98.10
42421;DHT22;28063;48.140;11.588;2023-02-28T06:37:31;-1.70;98.10
42421;DHT22;28063;48.140;11.588;2023-02-28T06:39:57;-1.70;98.20
42421;DHT22;28063;48.140;11.588;2023-02-28T06:42:24;-1.60;98.10
42421;DHT22;28063;48.140;11.588;2023-02-28T06:44:54;-1.50;97.80
42421;DHT22;28063;48.140;11.588;2023-02-28T06:47:21;-1.50;97.40
42421;DHT22;28063;48.140;11.588;2023-02-28T06:49:46;-1.60;97.30
42421;DHT22;28063;48.140;11.588;2023-02-28T06:52:12;-1.60;97.20
42421;DHT22;28063;48.140;11.588;2023-02-28T06:54:38;-1.60;97.10
42421;DHT22;28063;48.140;11.588;2023-02-28T06:57:04;-1.50;97.30
42421;DHT22;28063;48.140;11.588;2023-02-28T06:59:30;-1.50;97.00
42421;DHT22;28063;48.140;11.588;2023-02-28T07:01:56;-1.60;97.00
42421;DHT22;28063;48.140;11.588;2023-02-28T07:04:22;-1.50;97.10
42421;DHT22;28063;48.140;11.588;2023-02-28T07:06:48;-1.50;97.20
42421;DHT22;28063;48.140;11.588;2023-02-28T07:09:13;-1.40;97.20
42421;DHT22;28063;48.140;11.588;2023-02-28T07:11:40;-1.50;96.90
42421;DHT22;28063;48.140;11.588;2023-02-28T07:14:06;-1.40;96.90
42421;DHT22;28063;48.140;11.588;2023-02-28T07:16:32;-1.40;96.80
42421;DHT22;28063;48.140;11.588;2023-02-28T07:18:58;-1.40;96.80
42421;DHT22;28063;48.140;11.588;2023-02-28T07:21:24;-1.30;96.90
42421;DHT22;28063;48.140;11.588;2023-02-28T07:23:51;-1.30;97.00
42421;DHT22;28063;48.140;11.588;2023-02-28T07:26:18;-1.30;96.80
42421;DHT22;28063;48.140;11.588;2023-02-28T07:28:46;-1.20;96.80
42421;DHT22;28063;48.140;11.588;2023-02-28T07:31:13;-1.20;96.70
42421;DHT22;28063;48.140;11.588;2023-02-28T07:33:42;-1.20;96.50
42421;DHT22;28063;48.140;11.588;2023-02-28T07:36:11;-1.30;96.50
42421;DHT22;28063;48.140;11.588;2023-02-28T07:38:42;-1.20;96.50
42421;DHT22;28063;48.140;11.588;2023-02-28T07:41:09;-1.20;96.00
42421;DHT22;28063;48.140;11.588;2023-02-28T07:43:35;-1.30;96.20
42421;DHT22;28063;48.140;11.588;2023-02-28T07:46:04;-1.30;96.20
42421;DHT22;28063;48.140;11.588;2023-02-28T07:48:31;-1.30;96.00
42421;DHT22;28063;48.140;11.588;2023-02-28T07:50:57;-1.20;96.30
42421;DHT22;28063;48.140;11.588;2023-02-28T07:53:23;-1.10;96.30
42421;DHT22;28063;48.140;11.588;2023-02-28T07:55:49;-1.00;96.10
42421;DHT22;28063;48.140;11.588;2023-02-28T07:58:14;-1.00;95.90
42421;DHT22;28063;48.140;11.588;2023-02-28T08:00:40;-1.00;95.70
42421;DHT22;28063;48.140;11.588;2023-02-28T08:03:05;-1.00;95.40
42421;DHT22;28063;48.140;11.588;2023-02-28T08:05:31;-1.00;95.50
42421;DHT22;28063;48.140;11.588;2023-02-28T08:07:57;-1.10;95.60
42421;DHT22;28063;48.140;11.588;2023-02-28T08:10:23;-1.00;95.90
42421;DHT22;28063;48.140;11.588;2023-02-28T08:12:49;-0.90;95.80
42421;DHT22;28063;48.140;11.588;2023-02-28T08:15:15;-0.80;95.90
42421;DHT22;28063;48.140;11.588;2023-02-28T08:17:41;-0.80;95.40
42421;DHT22;28063;48.140;11.588;2023-02-28T08:20:07;-0.80;95.40
42421;DHT22;28063;48.140;11.588;2023-02-28T08:22:34;-0.80;95.60
42421;DHT22;28063;48.140;11.588;2023-02-28T08:25:00;-0.70;95.50
42421;DHT22;28063;48.140;11.588;2023-02-28T08:27:25;-0.70;95.30
42421;DHT22;28063;48.140;11.588;2023-02-28T08:29:51;-0.60;95.30
42421;DHT22;28063;48.140;11.588;2023-02-28T08:32:16;-0.50;95.10
42421;DHT22;28063;48.140;11.588;2023-02-28T08:34:42;-0.50;94.80
42421;DHT22;28063;48.140;11.588;2023-02-28T08:37:08;-0.50;94.80
42421;DHT22;28063;48.140;11.588;2023-02-28T08:39:34;-0.50;94.80
42421;DHT22;28063;48.140;11.588;2023-02-28T08:42:02;-0.50;94.60
42421;DHT22;28063;48.140;11.588;2023-02-28T08:44:28;-0.60;94.40
42421;DHT22;28063;48.140;11.588;2023-02-28T08:46:53;-0.60;94.40
42421;DHT22;28063;48.140;11.588;2023-02-28T08:49:19;-0.50;94.70
42421;DHT22;28063;48.140;11.588;2023-02-28T08:51:45;-0.50;94.70
42421;DHT22;28063;48.140;11.588;2023-02-28T08:54:10;-0.40;94.20
42421;DHT22;28063;48.140;11.588;2023-02-28T08:56:41;-0.50;93.50
42421;DHT22;28063;48.140;11.588;2023-02-28T08:59:09;-0.50;93.90
42421;DHT22;28063;48.140;11.588;2023-02-28T09:01:37;-0.50;93.90
42421;DHT22;28063;48.140;11.588;2023-02-28T09:04:03;-0.50;93.80
42421;DHT22;28063;48.140;11.588;2023-02-28T09:06:29;-0.50;93.90
42421;DHT22;28063;48.140;11.588;2023-02-28T09:08:58;-0.50;93.60
42421;DHT22;28063;48.140;11.588;2023-02-28T09:11:24;-0.50;93.50
42421;DHT22;28063;48.140;11.588;2023-02-28T09:13:50;-0.50;93.40
42421;DHT22;28063;48.140;11.588;2023-02-28T09:16:16;-0.50;93.70
42421;DHT22;28063;48.140;11.588;2023-02-28T09:18:43;-0.40;93.70
42421;DHT22;28063;48.140;11.588;2023-02-28T09:21:11;-0.40;93.50
42421;DHT22;28063;48.140;11.588;2023-02-28T09:23:43;-0.30;93.70
42421;DHT22;28063;48.140;11.588;2023-02-28T09:26:16;-0.20;93.80
42421;DHT22;28063;48.140;11.588;2023-02-28T09:28:43;0.00;93.50
42421;DHT22;28063;48.140;11.588;2023-02-28T09:31:17;0.00;93.20
42421;DHT22;28063;48.140;11.588;2023-02-28T09:33:46;0.10;93.10
42421;DHT22;28063;48.140;11.588;2023-02-28T09:36:12;0.20;93.30
42421;DHT22;28063;48.140;11.588;2023-02-28T09:38:38;0.30;92.60
42421;DHT22;28063;48.140;11.588;2023-02-28T09:41:16;0.40;91.90
42421;DHT22;28063;48.140;11.588;2023-02-28T09:43:55;0.30;91.90
42421;DHT22;28063;48.140;11.588;2023-02-28T09:46:35;0.30;91.90
42421;DHT22;28063;48.140;11.588;2023-02-28T09:49:11;0.30;92.10
42421;DHT22;28063;48.140;11.588;2023-02-28T09:51:49;0.30;91.80
42421;DHT22;28063;48.140;11.588;2023-02-28T09:54:22;0.20;91.60
42421;DHT22;28063;48.140;11.588;2023-02-28T09:57:01;0.20;92.00
42421;DHT22;28063;48.140;11.588;2023-02-28T10:04:58;0.60;91.50
42421;DHT22;28063;48.140;11.588;2023-02-28T10:10:25;0.80;90.30
42421;DHT22;28063;48.140;11.588;2023-02-28T10:12:54;0.90;90.40
42421;DHT22;28063;48.140;11.588;2023-02-28T10:15:23;1.10;90.20
42421;DHT22;28063;48.140;11.588;2023-02-28T10:18:06;1.30;90.10
42421;DHT22;28063;48.140;11.588;2023-02-28T10:20:37;1.60;90.40
42421;DHT22;28063;48.140;11.588;2023-02-28T10:23:20;1.80;89.00
42421;DHT22;28063;48.140;11.588;2023-02-28T10:25:53;1.80;88.10
42421;DHT22;28063;48.140;11.588;2023-02-28T10:28:19;1.80;87.80
42421;DHT22;28063;48.140;11.588;2023-02-28T10:30:48;1.80;87.50
42421;DHT22;28063;48.140;11.588;2023-02-28T10:33:25;1.80;87.40
42421;DHT22;28063;48.140;11.588;2023-02-28T10:35:53;2.00;87.50
42421;DHT22;28063;48.140;11.588;2023-02-28T10:38:28;2.20;86.40
42421;DHT22;28063;48.140;11.588;2023-02-28T10:41:08;2.20;85.40
42421;DHT22;28063;48.140;11.588;2023-02-28T10:43:34;2.10;82.70
42421;DHT22;28063;48.140;11.588;2023-02-28T10:48:40;2.20;85.70
42421;DHT22;28063;48.140;11.588;2023-02-28T10:51:12;2.60;85.40
42421;DHT22;28063;48.140;11.588;2023-02-28T10:53:46;2.90;81.80
42421;DHT22;28063;48.140;11.588;2023-02-28T10:56:24;2.90;80.40
42421;DHT22;28063;48.140;11.588;2023-02-28T11:01:42;3.30;80.80
42421;DHT22;28063;48.140;11.588;2023-02-28T11:06:56;4.00;79.80
42421;DHT22;28063;48.140;11.588;2023-02-28T11:09:44;4.20;78.40
42421;DHT22;28063;48.140;11.588;2023-02-28T11:12:36;4.10;77.00
42421;DHT22;28063;48.140;11.588;2023-02-28T11:18:01;3.50;75.40
42421;DHT22;28063;48.140;11.588;2023-02-28T11:20:30;3.20;75.00
42421;DHT22;28063;48.140;11.588;2023-02-28T11:22:58;3.10;77.10
42421;DHT22;28063;48.140;11.588;2023-02-28T11:25:30;3.20;77.80
42421;DHT22;28063;48.140;11.588;2023-02-28T11:28:00;3.10;77.50
42421;DHT22;28063;48.140;11.588;2023-02-28T11:30:35;3.00;78.00
42421;DHT22;28063;48.140;11.588;2023-02-28T11:33:22;3.00;78.70
42421;DHT22;28063;48.140;11.588;2023-02-28T11:35:49;3.10;78.50
42421;DHT22;28063;48.140;11.588;2023-02-28T11:38:15;3.00;78.50
42421;DHT22;28063;48.140;11.588;2023-02-28T11:41:02;2.90;78.30
42421;DHT22;28063;48.140;11.588;2023-02-28T11:48:54;2.60;79.80
42421;DHT22;28063;48.140;11.588;2023-02-28T11:51:34;2.80;79.70
42421;DHT22;28063;48.140;11.588;2023-02-28T11:54:43;2.90;79.10
42421;DHT22;28063;48.140;11.588;2023-02-28T12:05:24;3.30;78.90
42421;DHT22;28063;48.140;11.588;2023-02-28T12:10:51;3.60;77.50
42421;DHT22;28063;48.140;11.588;2023-02-28T12:24:22;4.30;73.40
42421;DHT22;28063;48.140;11.588;2023-02-28T12:26:53;4.20;73.30
42421;DHT22;28063;48.140;11.588;2023-02-28T12:29:29;4.30;74.00
42421;DHT22;28063;48.140;11.588;2023-02-28T12:32:09;4.60;74.60
42421;DHT22;28063;48.140;11.588;2023-02-28T12:34:47;5.10;73.10
42421;DHT22;28063;48.140;11.588;2023-02-28T12:37:22;5.30;71.30
42421;DHT22;28063;48.140;11.588;2023-02-28T12:39:54;5.50;70.30
42421;DHT22;28063;48.140;11.588;2023-02-28T12:42:28;5.60;69.40
42421;DHT22;28063;48.140;11.588;2023-02-28T12:45:02;5.50;68.80
42421;DHT22;28063;48.140;11.588;2023-02-28T12:47:28;5.60;69.10
42421;DHT22;28063;48.140;11.588;2023-02-28T12:50:02;5.80;69.10
42421;DHT22;28063;48.140;11.588;2023-02-28T12:58:36;5.00;67.70
42421;DHT22;28063;48.140;11.588;2023-02-28T13:09:18;5.20;69.50
42421;DHT22;28063;48.140;11.588;2023-02-28T13:11:46;5.20;67.90
42421;DHT22;28063;48.140;11.588;2023-02-28T13:14:29;5.10;68.20
42421;DHT22;28063;48.140;11.588;2023-02-28T13:19:36;5.40;68.80
42421;DHT22;28063;48.140;11.588;2023-02-28T13:22:04;5.90;68.60
42421;DHT22;28063;48.140;11.588;2023-02-28T13:24:40;6.00;65.50
42421;DHT22;28063;48.140;11.588;2023-02-28T13:29:41;5.90;66.70
42421;DHT22;28063;48.140;11.588;2023-02-28T13:39:56;6.50;64.60
42421;DHT22;28063;48.140;11.588;2023-02-28T13:42:23;6.60;65.00
42421;DHT22;28063;48.140;11.588;2023-02-28T14:04:14;6.60;61.20
42421;DHT22;28063;48.140;11.588;2023-02-28T14:07:06;6.10;62.60
42421;DHT22;28063;48.140;11.588;2023-02-28T14:10:03;6.00;64.20
42421;DHT22;28063;48.140;11.588;2023-02-28T14:12:55;5.50;64.00
42421;DHT22;28063;48.140;11.588;2023-02-28T14:15:39;5.10;65.60
42421;DHT22;28063;48.140;11.588;2023-02-28T14:18:28;4.90;66.50
42421;DHT22;28063;48.140;11.588;2023-02-28T14:21:19;4.70;66.90
42421;DHT22;28063;48.140;11.588;2023-02-28T14:36:59;5.20;68.10
42421;DHT22;28063;48.140;11.588;2023-02-28T14:39:26;5.60;68.00
42421;DHT22;28063;48.140;11.588;2023-02-28T14:41:53;5.90;66.50
42421;DHT22;28063;48.140;11.588;2023-02-28T14:44:26;5.90;65.20
42421;DHT22;28063;48.140;11.588;2023-02-28T14:47:00;5.70;65.10
42421;DHT22;28063;48.140;11.588;2023-02-28T14:49:42;5.50;65.80
42421;DHT22;28063;48.140;11.588;2023-02-28T14:52:22;5.10;66.20
42421;DHT22;28063;48.140;11.588;2023-02-28T14:54:56;4.60;67.20
42421;DHT22;28063;48.140;11.588;2023-02-28T15:00:13;4.30;69.30
42421;DHT22;28063;48.140;11.588;2023-02-28T15:02:40;4.20;69.30
42421;DHT22;28063;48.140;11.588;2023-02-28T15:07:35;4.00;70.60
42421;DHT22;28063;48.140;11.588;2023-02-28T15:10:18;4.00;70.90
42421;DHT22;28063;48.140;11.588;2023-02-28T15:15:18;4.00;71.00
42421;DHT22;28063;48.140;11.588;2023-02-28T15:17:52;3.90;71.00
42421;DHT22;28063;48.140;11.588;2023-02-28T15:20:19;3.80;71.30
42421;DHT22;28063;48.140;11.588;2023-02-28T15:22:46;3.80;71.70
42421;DHT22;28063;48.140;11.588;2023-02-28T15:25:17;3.80;72.20
42421;DHT22;28063;48.140;11.588;2023-02-28T15:27:47;3.70;72.60
42421;DHT22;28063;48.140;11.588;2023-02-28T15:30:26;3.70;72.80
42421;DHT22;28063;48.140;11.588;2023-02-28T15:33:06;3.60;73.20
42421;DHT22;28063;48.140;11.588;2023-02-28T15:35:41;3.60;73.60
42421;DHT22;28063;48.140;11.588;2023-02-28T15:38:24;3.50;73.70
42421;DHT22;28063;48.140;11.588;2023-02-28T15:40:53;3.40;73.70
42421;DHT22;28063;48.140;11.588;2023-02-28T15:43:28;3.30;74.20
42421;DHT22;28063;48.140;11.588;2023-02-28T15:46:03;3.30;74.60
42421;DHT22;28063;48.140;11.588;2023-02-28T15:48:42;3.20;74.80
42421;DHT22;28063;48.140;11.588;2023-02-28T15:51:16;3.20;75.10
42421;DHT22;28063;48.140;11.588;2023-02-28T15:54:12;3.10;75.20
42421;DHT22;28063;48.140;11.588;2023-02-28T15:56:49;3.10;75.50
42421;DHT22;28063;48.140;11.588;2023-02-28T15:59:28;3.20;75.80
42421;DHT22;28063;48.140;11.588;2023-02-28T16:02:15;3.30;75.80
42421;DHT22;28063;48.140;11.588;2023-02-28T16:07:35;3.50;75.70
42421;DHT22;28063;48.140;11.588;2023-02-28T16:10:01;3.50;75.80
42421;DHT22;28063;48.140;11.588;2023-02-28T16:12:29;3.50;76.20
42421;DHT22;28063;48.140;11.588;2023-02-28T16:14:58;3.40;76.50
42421;DHT22;28063;48.140;11.588;2023-02-28T16:17:26;3.30;76.70
42421;DHT22;28063;48.140;11.588;2023-02-28T16:19:54;3.20;77.20
42421;DHT22;28063;48.140;11.588;2023-02-28T16:22:20;3.10;77.70
42421;DHT22;28063;48.140;11.588;2023-02-28T16:24:46;3.00;78.30
42421;DHT22;28063;48.140;11.588;2023-02-28T16:27:30;2.90;78.60
42421;DHT22;28063;48.140;11.588;2023-02-28T16:29:56;2.80;79.10
42421;DHT22;28063;48.140;11.588;2023-02-28T16:32:22;2.70;79.60
42421;DHT22;28063;48.140;11.588;2023-02-28T16:34:47;2.60;80.00
42421;DHT22;28063;48.140;11.588;2023-02-28T16:37:15;2.60;80.40
42421;DHT22;28063;48.140;11.588;2023-02-28T16:39:43;2.50;80.70
42421;DHT22;28063;48.140;11.588;2023-02-28T16:42:20;2.50;81.00
42421;DHT22;28063;48.140;11.588;2023-02-28T16:44:48;2.40;81.20
42421;DHT22;28063;48.140;11.588;2023-02-28T16:47:13;2.40;81.50
42421;DHT22;28063;48.140;11.588;2023-02-28T16:49:39;2.40;81.70
42421;DHT22;28063;48.140;11.588;2023-02-28T16:52:08;2.40;81.90
42421;DHT22;28063;48.140;11.588;2023-02-28T16:54:33;2.30;81.90
42421;DHT22;28063;48.140;11.588;2023-02-28T16:56:59;2.30;82.10
42421;DHT22;28063;48.140;11.588;2023-02-28T16:59:26;2.20;82.50
42421;DHT22;28063;48.140;11.588;2023-02-28T17:01:54;2.20;82.90
42421;DHT22;28063;48.140;11.588;2023-02-28T17:04:20;2.10;82.90
42421;DHT22;28063;48.140;11.588;2023-02-28T17:06:45;2.10;83.20
42421;DHT22;28063;48.140;11.588;2023-02-28T17:09:20;2.10;83.50
42421;DHT22;28063;48.140;11.588;2023-02-28T17:11:46;2.00;83.70
42421;DHT22;28063;48.140;11.588;2023-02-28T17:14:12;2.00;84.00
42421;DHT22;28063;48.140;11.588;2023-02-28T17:16:39;2.00;84.40
42421;DHT22;28063;48.140;11.588;2023-02-28T17:19:15;1.90;84.50
42421;DHT22;28063;48.140;11.588;2023-02-28T17:21:42;1.90;84.80
42421;DHT22;28063;48.140;11.588;2023-02-28T17:24:09;1.90;85.10
42421;DHT22;28063;48.140;11.588;2023-02-28T17:26:38;1.90;85.30
42421;DHT22;28063;48.140;11.588;2023-02-28T17:29:06;1.90;85.50
42421;DHT22;28063;48.140;11.588;2023-02-28T17:31:35;1.90;85.70
42421;DHT22;28063;48.140;11.588;2023-02-28T17:34:04;1.80;86.10
42421;DHT22;28063;48.140;11.588;2023-02-28T17:36:29;1.80;86.60
42421;DHT22;28063;48.140;11.588;2023-02-28T17:38:55;1.80;86.70
42421;DHT22;28063;48.140;11.588;2023-02-28T17:41:21;1.90;86.90
42421;DHT22;28063;48.140;11.588;2023-02-28T17:43:47;1.90;87.00
42421;DHT22;28063;48.140;11.588;2023-02-28T17:46:21;1.90;87.00
42421;DHT22;28063;48.140;11.588;2023-02-28T17:48:51;2.00;87.10
42421;DHT22;28063;48.140;11.588;2023-02-28T17:51:19;2.00;87.10
42421;DHT22;28063;48.140;11.588;2023-02-28T17:53:45;2.00;87.20
42421;DHT22;28063;48.140;11.588;2023-02-28T17:56:25;2.10;87.30
42421;DHT22;28063;48.140;11.588;2023-02-28T17:58:53;2.10;87.20
42421;DHT22;28063;48.140;11.588;2023-02-28T18:01:19;2.10;87.30
42421;DHT22;28063;48.140;11.588;2023-02-28T18:03:46;2.20;87.40
42421;DHT22;28063;48.140;11.588;2023-02-28T18:06:22;2.20;87.40
42421;DHT22;28063;48.140;11.588;2023-02-28T18:08:49;2.20;87.20
42421;DHT22;28063;48.140;11.588;2023-02-28T18:11:20;2.30;87.20
42421;DHT22;28063;48.140;11.588;2023-02-28T18:13:50;2.30;87.10
42421;DHT22;28063;48.140;11.588;2023-02-28T18:16:17;2.30;87.00
42421;DHT22;28063;48.140;11.588;2023-02-28T18:18:43;2.40;86.90
42421;DHT22;28063;48.140;11.588;2023-02-28T18:21:10;2.40;87.00